Monday, February 19, 2018, 9:59 AM GMT
Back to Local

CWVU, Brier Island, N. S.

Location: , , Canada Lat: 44.286
Local Time: 9:59 AM GMT ( 9:59 GMT) Lon: -66.347
Time Zone: GMT Elev: 52 ft

Show me the last for .
Show Coded

Time T Td Feel RH Dir Speed Gust Alt SLP Vis Weather Sky Remarks
2018-02-19 09:00 31 22 28 66 310° 3 - - 30.58 0 None
2018-02-19 08:00 34 22 28 60 320° 7 - - 30.56 0 None
2018-02-19 07:00 34 22 25 59 310° 12 - - 30.55 0 None
2018-02-19 06:00 33 21 22 61 310° 17 - - 30.54 0 Peak wind: 24 mph (21 kts) from 300° at 00 min
2018-02-19 05:00 35 26 24 67 310° 22 - - 30.50 0 Peak wind: 29 mph (26 kts) from 310° at 06 min
2018-02-19 04:00 36 23 23 59 310° 28 - - 30.50 0 Peak wind: 32 mph (28 kts) from 300° at 17 min
2018-02-19 03:00 36 24 23 63 300° 26 - - 30.46 0 Peak wind: 33 mph (29 kts) from 290° at 04 min
2018-02-19 02:00 36 24 23 62 300° 29 - - 30.44 0 Peak wind: 32 mph (28 kts) from 300° at 58 min
2018-02-19 01:00 36 26 23 66 300° 26 - - 30.41 0 Peak wind: 32 mph (28 kts) from 300° at 26 min
2018-02-19 00:00 36 29 24 77 300° 24 - - 30.38 0 Peak wind: 29 mph (26 kts) from 300° at 45 min
Pressure rising rapidly
2018-02-18 23:00 35 27 25 72 310° 20 - - 30.29 0 Peak wind: 26 mph (23 kts) from 310° at 01 min
2018-02-18 22:00 35 27 24 72 310° 23 - - 30.27 0 Peak wind: 28 mph (25 kts) from 300° at 42 min
2018-02-18 21:00 35 31 24 86 320° 18 - - 30.21 0 Peak wind: 23 mph (20 kts) from 330° at 14 min
Pressure rising rapidly
2018-02-18 20:00 35 33 25 91 340° 16 - - 30.15 0 Peak wind: 23 mph (20 kts) from 350° at 21 min
2018-02-18 19:00 35 32 25 88 330° 15 - - 30.11 0 Peak wind: 19 mph (17 kts) from 340° at 26 min
2018-02-18 18:00 35 32 25 89 330° 15 - - 30.09 0 None
2018-02-18 17:00 34 31 27 89 10° 8 - - 30.05 0 None
2018-02-18 16:00 32 31 22 96 30° 14 - - 30.02 0 Peak wind: 19 mph (17 kts) from 20° at 03 min
2018-02-18 15:00 31 30 19 98 20° 16 - - 30.00 0 Peak wind: 21 mph (19 kts) from 70° at 00 min
2018-02-18 14:00 31 30 19 98 70° 18 - - 29.98 0 Peak wind: 23 mph (20 kts) from 80° at 39 min
2018-02-18 13:00 30 29 18 96 90° 18 - - 29.97 0 Peak wind: 27 mph (24 kts) from 90° at 23 min
2018-02-18 12:00 29 29 16 97 100° 22 - - 29.97 0 Peak wind: 28 mph (25 kts) from 110° at 19 min
2018-02-18 11:00 31 27 18 83 100° 22 - - 30.00 0 Peak wind: 28 mph (25 kts) from 110° at 05 min
2018-02-18 10:00 28 26 14 92 100° 23 - - 30.03 0 Peak wind: 27 mph (24 kts) from 100° at 58 min

Support USWX by starting your Amazon purchase here.